sensor_id;sensor_type;location;lat;lon;timestamp;P1;durP1;ratioP1;P2;durP2;ratioP2
56830;SDS011;42713;42.676;23.352;2022-12-07T00:01:39;31.33;;;15.98;;
56830;SDS011;42713;42.676;23.352;2022-12-07T00:04:06;37.28;;;15.95;;
56830;SDS011;42713;42.676;23.352;2022-12-07T00:06:33;35.72;;;17.25;;
56830;SDS011;42713;42.676;23.352;2022-12-07T00:09:11;33.88;;;15.07;;
56830;SDS011;42713;42.676;23.352;2022-12-07T00:11:42;32.15;;;14.68;;
56830;SDS011;42713;42.676;23.352;2022-12-07T00:14:12;33.20;;;16.40;;
56830;SDS011;42713;42.676;23.352;2022-12-07T00:16:39;28.95;;;15.18;;
56830;SDS011;42713;42.676;23.352;2022-12-07T00:19:05;30.40;;;14.23;;
56830;SDS011;42713;42.676;23.352;2022-12-07T00:21:32;30.73;;;14.68;;
56830;SDS011;42713;42.676;23.352;2022-12-07T00:24:00;34.28;;;15.57;;
56830;SDS011;42713;42.676;23.352;2022-12-07T00:26:30;32.08;;;13.80;;
56830;SDS011;42713;42.676;23.352;2022-12-07T00:28:59;36.25;;;15.52;;
56830;SDS011;42713;42.676;23.352;2022-12-07T00:31:27;32.88;;;15.80;;
56830;SDS011;42713;42.676;23.352;2022-12-07T00:33:54;34.58;;;15.98;;
56830;SDS011;42713;42.676;23.352;2022-12-07T00:36:23;38.00;;;16.33;;
56830;SDS011;42713;42.676;23.352;2022-12-07T00:38:49;29.00;;;16.10;;
56830;SDS011;42713;42.676;23.352;2022-12-07T00:41:16;32.28;;;16.02;;
56830;SDS011;42713;42.676;23.352;2022-12-07T00:43:43;35.63;;;15.57;;
56830;SDS011;42713;42.676;23.352;2022-12-07T00:46:11;33.28;;;15.50;;
56830;SDS011;42713;42.676;23.352;2022-12-07T00:48:37;34.58;;;15.68;;
56830;SDS011;42713;42.676;23.352;2022-12-07T00:51:03;33.35;;;15.60;;
56830;SDS011;42713;42.676;23.352;2022-12-07T00:53:29;30.23;;;16.13;;
56830;SDS011;42713;42.676;23.352;2022-12-07T00:55:55;27.63;;;14.48;;
56830;SDS011;42713;42.676;23.352;2022-12-07T00:58:21;36.63;;;14.55;;
56830;SDS011;42713;42.676;23.352;2022-12-07T01:00:47;34.70;;;15.52;;
56830;SDS011;42713;42.676;23.352;2022-12-07T01:03:13;29.35;;;15.48;;
56830;SDS011;42713;42.676;23.352;2022-12-07T01:05:40;31.25;;;15.18;;
56830;SDS011;42713;42.676;23.352;2022-12-07T01:08:14;31.80;;;14.35;;
56830;SDS011;42713;42.676;23.352;2022-12-07T01:10:39;32.40;;;15.73;;
56830;SDS011;42713;42.676;23.352;2022-12-07T01:13:07;34.67;;;16.15;;
56830;SDS011;42713;42.676;23.352;2022-12-07T01:15:32;33.20;;;15.07;;
56830;SDS011;42713;42.676;23.352;2022-12-07T01:17:58;32.30;;;14.95;;
56830;SDS011;42713;42.676;23.352;2022-12-07T01:20:23;34.30;;;15.13;;
56830;SDS011;42713;42.676;23.352;2022-12-07T01:22:49;34.70;;;15.85;;
56830;SDS011;42713;42.676;23.352;2022-12-07T01:25:14;35.00;;;15.80;;
56830;SDS011;42713;42.676;23.352;2022-12-07T01:27:40;32.70;;;15.07;;
56830;SDS011;42713;42.676;23.352;2022-12-07T01:30:06;32.15;;;14.48;;
56830;SDS011;42713;42.676;23.352;2022-12-07T01:32:32;30.80;;;14.98;;
56830;SDS011;42713;42.676;23.352;2022-12-07T01:34:58;33.03;;;14.38;;
56830;SDS011;42713;42.676;23.352;2022-12-07T01:37:24;32.53;;;15.77;;
56830;SDS011;42713;42.676;23.352;2022-12-07T01:39:50;32.53;;;15.30;;
56830;SDS011;42713;42.676;23.352;2022-12-07T01:42:16;29.30;;;15.05;;
56830;SDS011;42713;42.676;23.352;2022-12-07T01:47:43;29.15;;;14.10;;
56830;SDS011;42713;42.676;23.352;2022-12-07T01:50:12;33.90;;;14.40;;
56830;SDS011;42713;42.676;23.352;2022-12-07T01:52:38;31.55;;;14.73;;
56830;SDS011;42713;42.676;23.352;2022-12-07T01:55:08;37.25;;;15.93;;
56830;SDS011;42713;42.676;23.352;2022-12-07T01:57:42;32.05;;;15.60;;
56830;SDS011;42713;42.676;23.352;2022-12-07T02:00:11;34.35;;;15.20;;
56830;SDS011;42713;42.676;23.352;2022-12-07T02:02:38;32.83;;;15.85;;
56830;SDS011;42713;42.676;23.352;2022-12-07T02:05:08;32.33;;;15.07;;
56830;SDS011;42713;42.676;23.352;2022-12-07T02:07:35;33.65;;;16.13;;
56830;SDS011;42713;42.676;23.352;2022-12-07T02:10:16;33.47;;;15.40;;
56830;SDS011;42713;42.676;23.352;2022-12-07T02:12:44;30.02;;;15.57;;
56830;SDS011;42713;42.676;23.352;2022-12-07T02:15:14;37.75;;;16.45;;
56830;SDS011;42713;42.676;23.352;2022-12-07T02:26:02;36.13;;;16.33;;
56830;SDS011;42713;42.676;23.352;2022-12-07T02:28:37;36.00;;;16.23;;
56830;SDS011;42713;42.676;23.352;2022-12-07T02:31:12;30.58;;;15.70;;
56830;SDS011;42713;42.676;23.352;2022-12-07T02:33:45;33.03;;;15.05;;
56830;SDS011;42713;42.676;23.352;2022-12-07T02:36:17;36.67;;;16.23;;
56830;SDS011;42713;42.676;23.352;2022-12-07T02:38:55;34.20;;;15.27;;
56830;SDS011;42713;42.676;23.352;2022-12-07T02:41:31;33.67;;;16.20;;
56830;SDS011;42713;42.676;23.352;2022-12-07T02:44:10;29.52;;;15.70;;
56830;SDS011;42713;42.676;23.352;2022-12-07T02:46:43;35.42;;;17.42;;
56830;SDS011;42713;42.676;23.352;2022-12-07T02:49:13;33.35;;;17.25;;
56830;SDS011;42713;42.676;23.352;2022-12-07T02:51:43;35.40;;;17.05;;
56830;SDS011;42713;42.676;23.352;2022-12-07T02:54:15;39.35;;;18.40;;
56830;SDS011;42713;42.676;23.352;2022-12-07T03:04:43;37.40;;;16.40;;
56830;SDS011;42713;42.676;23.352;2022-12-07T03:12:44;35.85;;;16.98;;
56830;SDS011;42713;42.676;23.352;2022-12-07T03:15:18;41.30;;;16.27;;
56830;SDS011;42713;42.676;23.352;2022-12-07T03:17:51;32.28;;;16.23;;
56830;SDS011;42713;42.676;23.352;2022-12-07T03:20:21;38.90;;;18.58;;
56830;SDS011;42713;42.676;23.352;2022-12-07T03:22:48;33.67;;;18.17;;
56830;SDS011;42713;42.676;23.352;2022-12-07T03:25:16;40.03;;;19.02;;
56830;SDS011;42713;42.676;23.352;2022-12-07T03:27:45;40.47;;;18.17;;
56830;SDS011;42713;42.676;23.352;2022-12-07T03:30:23;45.05;;;17.92;;
56830;SDS011;42713;42.676;23.352;2022-12-07T03:33:36;40.05;;;19.02;;
56830;SDS011;42713;42.676;23.352;2022-12-07T03:36:00;46.47;;;20.92;;
56830;SDS011;42713;42.676;23.352;2022-12-07T03:38:37;38.85;;;20.52;;
56830;SDS011;42713;42.676;23.352;2022-12-07T03:41:06;46.42;;;21.73;;
56830;SDS011;42713;42.676;23.352;2022-12-07T03:43:54;42.17;;;20.30;;
56830;SDS011;42713;42.676;23.352;2022-12-07T03:46:27;37.95;;;19.00;;
56830;SDS011;42713;42.676;23.352;2022-12-07T03:57:32;41.13;;;19.80;;
56830;SDS011;42713;42.676;23.352;2022-12-07T03:59:59;37.10;;;17.98;;
56830;SDS011;42713;42.676;23.352;2022-12-07T04:02:27;38.58;;;17.05;;
56830;SDS011;42713;42.676;23.352;2022-12-07T04:04:54;33.17;;;16.98;;
56830;SDS011;42713;42.676;23.352;2022-12-07T04:07:20;37.72;;;17.60;;
56830;SDS011;42713;42.676;23.352;2022-12-07T04:09:46;34.53;;;16.95;;
56830;SDS011;42713;42.676;23.352;2022-12-07T04:12:12;44.78;;;18.75;;
56830;SDS011;42713;42.676;23.352;2022-12-07T04:14:37;35.53;;;17.98;;
56830;SDS011;42713;42.676;23.352;2022-12-07T04:17:03;42.97;;;19.45;;
56830;SDS011;42713;42.676;23.352;2022-12-07T04:19:29;39.95;;;19.38;;
56830;SDS011;42713;42.676;23.352;2022-12-07T04:21:57;39.53;;;18.20;;
56830;SDS011;42713;42.676;23.352;2022-12-07T04:24:24;36.03;;;17.00;;
56830;SDS011;42713;42.676;23.352;2022-12-07T04:26:50;38.35;;;17.25;;
56830;SDS011;42713;42.676;23.352;2022-12-07T04:29:16;36.72;;;16.75;;
56830;SDS011;42713;42.676;23.352;2022-12-07T04:31:42;41.72;;;17.98;;
56830;SDS011;42713;42.676;23.352;2022-12-07T04:34:08;42.13;;;17.85;;
56830;SDS011;42713;42.676;23.352;2022-12-07T04:36:35;40.10;;;17.95;;
56830;SDS011;42713;42.676;23.352;2022-12-07T04:39:00;41.55;;;17.20;;
56830;SDS011;42713;42.676;23.352;2022-12-07T04:41:26;38.60;;;18.00;;
56830;SDS011;42713;42.676;23.352;2022-12-07T04:43:53;38.92;;;17.98;;
56830;SDS011;42713;42.676;23.352;2022-12-07T04:46:23;39.00;;;18.20;;
56830;SDS011;42713;42.676;23.352;2022-12-07T04:48:49;39.33;;;17.95;;
56830;SDS011;42713;42.676;23.352;2022-12-07T04:51:17;38.17;;;18.42;;
56830;SDS011;42713;42.676;23.352;2022-12-07T04:53:46;40.73;;;17.50;;
56830;SDS011;42713;42.676;23.352;2022-12-07T04:56:13;32.20;;;16.13;;
56830;SDS011;42713;42.676;23.352;2022-12-07T04:58:40;33.05;;;17.25;;
56830;SDS011;42713;42.676;23.352;2022-12-07T05:01:06;40.88;;;17.77;;
56830;SDS011;42713;42.676;23.352;2022-12-07T05:03:32;38.50;;;17.35;;
56830;SDS011;42713;42.676;23.352;2022-12-07T05:05:57;39.20;;;18.05;;
56830;SDS011;42713;42.676;23.352;2022-12-07T05:08:23;39.10;;;17.13;;
56830;SDS011;42713;42.676;23.352;2022-12-07T05:10:48;40.97;;;18.10;;
56830;SDS011;42713;42.676;23.352;2022-12-07T05:13:14;40.58;;;18.55;;
56830;SDS011;42713;42.676;23.352;2022-12-07T05:15:40;33.42;;;16.73;;
56830;SDS011;42713;42.676;23.352;2022-12-07T05:18:07;38.55;;;18.60;;
56830;SDS011;42713;42.676;23.352;2022-12-07T05:20:34;45.25;;;18.80;;
56830;SDS011;42713;42.676;23.352;2022-12-07T05:22:59;40.55;;;18.90;;
56830;SDS011;42713;42.676;23.352;2022-12-07T05:25:24;37.70;;;17.48;;
56830;SDS011;42713;42.676;23.352;2022-12-07T05:27:50;34.83;;;17.25;;
56830;SDS011;42713;42.676;23.352;2022-12-07T05:30:16;34.90;;;16.90;;
56830;SDS011;42713;42.676;23.352;2022-12-07T05:32:41;37.80;;;18.00;;
56830;SDS011;42713;42.676;23.352;2022-12-07T05:35:07;39.85;;;19.17;;
56830;SDS011;42713;42.676;23.352;2022-12-07T05:37:42;35.47;;;17.33;;
56830;SDS011;42713;42.676;23.352;2022-12-07T05:40:08;38.42;;;18.38;;
56830;SDS011;42713;42.676;23.352;2022-12-07T05:42:34;39.95;;;18.35;;
56830;SDS011;42713;42.676;23.352;2022-12-07T05:44:59;35.53;;;16.67;;
56830;SDS011;42713;42.676;23.352;2022-12-07T05:47:25;38.55;;;16.75;;
56830;SDS011;42713;42.676;23.352;2022-12-07T05:49:50;38.45;;;17.90;;
56830;SDS011;42713;42.676;23.352;2022-12-07T05:52:16;41.47;;;18.17;;
56830;SDS011;42713;42.676;23.352;2022-12-07T05:54:42;47.03;;;17.98;;
56830;SDS011;42713;42.676;23.352;2022-12-07T05:57:08;38.85;;;17.40;;
56830;SDS011;42713;42.676;23.352;2022-12-07T05:59:33;40.33;;;17.45;;
56830;SDS011;42713;42.676;23.352;2022-12-07T06:02:00;44.55;;;19.00;;
56830;SDS011;42713;42.676;23.352;2022-12-07T06:04:28;45.70;;;18.10;;
56830;SDS011;42713;42.676;23.352;2022-12-07T06:06:56;43.58;;;18.48;;
56830;SDS011;42713;42.676;23.352;2022-12-07T06:09:22;37.13;;;18.10;;
56830;SDS011;42713;42.676;23.352;2022-12-07T06:11:49;43.20;;;18.50;;
56830;SDS011;42713;42.676;23.352;2022-12-07T06:14:33;40.85;;;18.33;;
56830;SDS011;42713;42.676;23.352;2022-12-07T06:16:58;48.70;;;17.67;;
56830;SDS011;42713;42.676;23.352;2022-12-07T06:19:24;45.45;;;18.63;;
56830;SDS011;42713;42.676;23.352;2022-12-07T06:21:49;42.88;;;19.60;;
56830;SDS011;42713;42.676;23.352;2022-12-07T06:24:16;42.20;;;17.83;;
56830;SDS011;42713;42.676;23.352;2022-12-07T06:26:42;37.85;;;17.42;;
56830;SDS011;42713;42.676;23.352;2022-12-07T06:29:07;38.58;;;19.10;;
56830;SDS011;42713;42.676;23.352;2022-12-07T06:31:33;41.33;;;17.92;;
56830;SDS011;42713;42.676;23.352;2022-12-07T06:33:59;42.53;;;19.33;;
56830;SDS011;42713;42.676;23.352;2022-12-07T06:36:27;39.45;;;19.00;;
56830;SDS011;42713;42.676;23.352;2022-12-07T06:38:53;40.40;;;19.02;;
56830;SDS011;42713;42.676;23.352;2022-12-07T06:41:18;36.13;;;17.17;;
56830;SDS011;42713;42.676;23.352;2022-12-07T06:43:44;40.30;;;18.80;;
56830;SDS011;42713;42.676;23.352;2022-12-07T06:46:09;45.67;;;18.65;;
56830;SDS011;42713;42.676;23.352;2022-12-07T06:48:34;41.47;;;18.08;;
56830;SDS011;42713;42.676;23.352;2022-12-07T06:51:01;46.08;;;18.67;;
56830;SDS011;42713;42.676;23.352;2022-12-07T06:53:26;40.72;;;18.80;;
56830;SDS011;42713;42.676;23.352;2022-12-07T06:55:52;37.85;;;17.67;;
56830;SDS011;42713;42.676;23.352;2022-12-07T06:58:17;44.78;;;19.75;;
56830;SDS011;42713;42.676;23.352;2022-12-07T07:00:43;43.35;;;18.52;;
56830;SDS011;42713;42.676;23.352;2022-12-07T07:03:09;45.67;;;20.15;;
56830;SDS011;42713;42.676;23.352;2022-12-07T07:05:36;42.65;;;18.58;;
56830;SDS011;42713;42.676;23.352;2022-12-07T07:08:01;45.10;;;19.77;;
56830;SDS011;42713;42.676;23.352;2022-12-07T07:10:27;44.25;;;19.67;;
56830;SDS011;42713;42.676;23.352;2022-12-07T07:12:53;43.90;;;19.58;;
56830;SDS011;42713;42.676;23.352;2022-12-07T07:15:18;56.20;;;20.73;;
56830;SDS011;42713;42.676;23.352;2022-12-07T07:17:44;52.63;;;20.40;;
56830;SDS011;42713;42.676;23.352;2022-12-07T07:20:10;47.45;;;19.42;;
56830;SDS011;42713;42.676;23.352;2022-12-07T07:22:36;46.30;;;20.13;;
56830;SDS011;42713;42.676;23.352;2022-12-07T07:25:02;41.78;;;19.40;;
56830;SDS011;42713;42.676;23.352;2022-12-07T07:27:27;39.92;;;19.63;;
56830;SDS011;42713;42.676;23.352;2022-12-07T07:29:53;41.47;;;19.55;;
56830;SDS011;42713;42.676;23.352;2022-12-07T07:32:18;44.85;;;19.27;;
56830;SDS011;42713;42.676;23.352;2022-12-07T07:34:45;46.53;;;20.20;;
56830;SDS011;42713;42.676;23.352;2022-12-07T07:37:10;44.92;;;20.52;;
56830;SDS011;42713;42.676;23.352;2022-12-07T07:39:37;43.33;;;18.80;;
56830;SDS011;42713;42.676;23.352;2022-12-07T07:42:03;45.03;;;19.63;;
56830;SDS011;42713;42.676;23.352;2022-12-07T07:44:29;42.63;;;19.80;;
56830;SDS011;42713;42.676;23.352;2022-12-07T07:46:55;37.30;;;19.02;;
56830;SDS011;42713;42.676;23.352;2022-12-07T07:49:20;45.22;;;19.10;;
56830;SDS011;42713;42.676;23.352;2022-12-07T07:51:46;44.85;;;19.45;;
56830;SDS011;42713;42.676;23.352;2022-12-07T07:54:11;41.50;;;19.25;;
56830;SDS011;42713;42.676;23.352;2022-12-07T07:56:37;45.70;;;19.40;;
56830;SDS011;42713;42.676;23.352;2022-12-07T07:59:03;40.72;;;19.27;;
56830;SDS011;42713;42.676;23.352;2022-12-07T08:01:28;42.42;;;19.80;;
56830;SDS011;42713;42.676;23.352;2022-12-07T08:03:53;40.17;;;19.48;;
56830;SDS011;42713;42.676;23.352;2022-12-07T08:06:19;42.17;;;19.55;;
56830;SDS011;42713;42.676;23.352;2022-12-07T08:08:45;40.88;;;19.27;;
56830;SDS011;42713;42.676;23.352;2022-12-07T08:11:10;42.88;;;20.23;;
56830;SDS011;42713;42.676;23.352;2022-12-07T08:13:36;41.88;;;19.55;;
56830;SDS011;42713;42.676;23.352;2022-12-07T08:16:06;46.80;;;20.08;;
56830;SDS011;42713;42.676;23.352;2022-12-07T08:18:37;40.67;;;20.27;;
56830;SDS011;42713;42.676;23.352;2022-12-07T08:21:08;44.55;;;20.70;;
56830;SDS011;42713;42.676;23.352;2022-12-07T08:23:37;42.08;;;20.73;;
56830;SDS011;42713;42.676;23.352;2022-12-07T08:26:04;40.47;;;19.83;;
56830;SDS011;42713;42.676;23.352;2022-12-07T08:28:31;48.30;;;21.17;;
56830;SDS011;42713;42.676;23.352;2022-12-07T08:31:08;46.92;;;20.65;;
56830;SDS011;42713;42.676;23.352;2022-12-07T08:33:36;44.83;;;20.80;;
56830;SDS011;42713;42.676;23.352;2022-12-07T08:36:03;50.80;;;21.15;;
56830;SDS011;42713;42.676;23.352;2022-12-07T08:38:30;45.42;;;20.67;;
56830;SDS011;42713;42.676;23.352;2022-12-07T08:40:57;39.55;;;19.20;;
56830;SDS011;42713;42.676;23.352;2022-12-07T08:43:23;42.70;;;19.98;;
56830;SDS011;42713;42.676;23.352;2022-12-07T08:48:41;41.90;;;20.85;;
56830;SDS011;42713;42.676;23.352;2022-12-07T08:51:16;46.72;;;20.55;;
56830;SDS011;42713;42.676;23.352;2022-12-07T08:53:48;48.55;;;21.95;;
56830;SDS011;42713;42.676;23.352;2022-12-07T08:56:16;45.50;;;21.75;;
56830;SDS011;42713;42.676;23.352;2022-12-07T08:58:42;45.63;;;21.88;;
56830;SDS011;42713;42.676;23.352;2022-12-07T09:01:08;41.67;;;22.15;;
56830;SDS011;42713;42.676;23.352;2022-12-07T09:03:34;58.13;;;24.42;;
56830;SDS011;42713;42.676;23.352;2022-12-07T09:06:00;44.92;;;21.77;;
56830;SDS011;42713;42.676;23.352;2022-12-07T09:08:26;48.13;;;22.40;;
56830;SDS011;42713;42.676;23.352;2022-12-07T09:10:56;43.38;;;22.73;;
56830;SDS011;42713;42.676;23.352;2022-12-07T09:13:21;47.00;;;23.08;;
56830;SDS011;42713;42.676;23.352;2022-12-07T09:15:47;46.67;;;22.33;;
56830;SDS011;42713;42.676;23.352;2022-12-07T09:18:13;46.83;;;22.23;;
56830;SDS011;42713;42.676;23.352;2022-12-07T09:20:38;48.50;;;21.35;;
56830;SDS011;42713;42.676;23.352;2022-12-07T09:23:07;51.70;;;21.67;;
56830;SDS011;42713;42.676;23.352;2022-12-07T09:25:33;45.45;;;22.30;;
56830;SDS011;42713;42.676;23.352;2022-12-07T09:27:59;48.38;;;23.48;;
56830;SDS011;42713;42.676;23.352;2022-12-07T09:30:25;50.00;;;22.98;;
56830;SDS011;42713;42.676;23.352;2022-12-07T09:32:57;46.70;;;24.45;;
56830;SDS011;42713;42.676;23.352;2022-12-07T09:35:23;51.22;;;24.42;;
56830;SDS011;42713;42.676;23.352;2022-12-07T09:37:49;51.80;;;25.02;;
56830;SDS011;42713;42.676;23.352;2022-12-07T09:40:16;42.28;;;21.98;;
56830;SDS011;42713;42.676;23.352;2022-12-07T09:42:46;47.97;;;24.10;;
56830;SDS011;42713;42.676;23.352;2022-12-07T09:45:16;50.30;;;24.58;;
56830;SDS011;42713;42.676;23.352;2022-12-07T09:47:46;47.30;;;22.88;;
56830;SDS011;42713;42.676;23.352;2022-12-07T09:50:13;53.97;;;27.02;;
56830;SDS011;42713;42.676;23.352;2022-12-07T09:52:42;52.88;;;24.90;;
56830;SDS011;42713;42.676;23.352;2022-12-07T09:55:11;51.83;;;24.25;;
56830;SDS011;42713;42.676;23.352;2022-12-07T09:57:38;55.17;;;25.30;;
56830;SDS011;42713;42.676;23.352;2022-12-07T10:00:09;49.83;;;25.73;;
56830;SDS011;42713;42.676;23.352;2022-12-07T10:02:44;55.15;;;25.23;;
56830;SDS011;42713;42.676;23.352;2022-12-07T10:05:18;52.92;;;25.38;;
56830;SDS011;42713;42.676;23.352;2022-12-07T10:07:47;45.97;;;23.08;;
56830;SDS011;42713;42.676;23.352;2022-12-07T10:10:14;48.60;;;24.60;;
56830;SDS011;42713;42.676;23.352;2022-12-07T10:13:44;55.85;;;24.58;;
56830;SDS011;42713;42.676;23.352;2022-12-07T10:20:46;43.95;;;23.23;;
56830;SDS011;42713;42.676;23.352;2022-12-07T10:23:17;54.83;;;23.15;;
56830;SDS011;42713;42.676;23.352;2022-12-07T10:25:43;44.05;;;23.27;;
56830;SDS011;42713;42.676;23.352;2022-12-07T10:28:14;48.23;;;23.47;;
56830;SDS011;42713;42.676;23.352;2022-12-07T10:30:58;50.05;;;21.90;;
56830;SDS011;42713;42.676;23.352;2022-12-07T10:33:32;43.95;;;19.85;;
56830;SDS011;42713;42.676;23.352;2022-12-07T10:36:00;46.10;;;20.42;;
56830;SDS011;42713;42.676;23.352;2022-12-07T10:38:27;40.17;;;21.73;;
56830;SDS011;42713;42.676;23.352;2022-12-07T10:41:03;45.65;;;20.67;;
56830;SDS011;42713;42.676;23.352;2022-12-07T10:43:30;44.35;;;21.20;;
56830;SDS011;42713;42.676;23.352;2022-12-07T10:51:34;31.95;;;18.30;;
56830;SDS011;42713;42.676;23.352;2022-12-07T10:54:10;42.65;;;18.30;;
56830;SDS011;42713;42.676;23.352;2022-12-07T11:08:09;43.08;;;19.77;;
56830;SDS011;42713;42.676;23.352;2022-12-07T11:16:19;33.60;;;16.77;;
56830;SDS011;42713;42.676;23.352;2022-12-07T11:21:58;40.67;;;18.15;;
56830;SDS011;42713;42.676;23.352;2022-12-07T11:27:14;38.85;;;18.25;;
56830;SDS011;42713;42.676;23.352;2022-12-07T11:30:08;41.25;;;19.40;;
56830;SDS011;42713;42.676;23.352;2022-12-07T11:38:33;31.63;;;15.65;;
56830;SDS011;42713;42.676;23.352;2022-12-07T11:41:06;38.17;;;16.48;;
56830;SDS011;42713;42.676;23.352;2022-12-07T11:43:39;30.40;;;16.15;;
56830;SDS011;42713;42.676;23.352;2022-12-07T11:46:15;37.47;;;15.00;;
56830;SDS011;42713;42.676;23.352;2022-12-07T11:48:55;37.03;;;14.18;;
56830;SDS011;42713;42.676;23.352;2022-12-07T11:51:43;30.20;;;13.77;;
56830;SDS011;42713;42.676;23.352;2022-12-07T11:54:21;28.38;;;12.98;;
56830;SDS011;42713;42.676;23.352;2022-12-07T11:57:02;30.27;;;13.23;;
56830;SDS011;42713;42.676;23.352;2022-12-07T11:59:36;26.65;;;12.80;;
56830;SDS011;42713;42.676;23.352;2022-12-07T12:02:11;29.45;;;13.45;;
56830;SDS011;42713;42.676;23.352;2022-12-07T12:07:30;30.65;;;13.27;;
56830;SDS011;42713;42.676;23.352;2022-12-07T12:09:58;25.30;;;12.75;;
56830;SDS011;42713;42.676;23.352;2022-12-07T12:12:48;25.55;;;11.57;;
56830;SDS011;42713;42.676;23.352;2022-12-07T12:21:06;25.50;;;12.23;;
56830;SDS011;42713;42.676;23.352;2022-12-07T12:23:43;25.08;;;10.82;;
56830;SDS011;42713;42.676;23.352;2022-12-07T12:26:23;25.27;;;11.18;;
56830;SDS011;42713;42.676;23.352;2022-12-07T12:28:52;23.55;;;11.13;;
56830;SDS011;42713;42.676;23.352;2022-12-07T12:33:48;27.48;;;11.48;;
56830;SDS011;42713;42.676;23.352;2022-12-07T12:44:00;30.05;;;13.02;;
56830;SDS011;42713;42.676;23.352;2022-12-07T12:51:40;28.95;;;12.77;;
56830;SDS011;42713;42.676;23.352;2022-12-07T12:54:11;25.25;;;11.95;;
56830;SDS011;42713;42.676;23.352;2022-12-07T12:56:43;27.23;;;11.73;;
56830;SDS011;42713;42.676;23.352;2022-12-07T12:59:22;28.85;;;10.68;;
56830;SDS011;42713;42.676;23.352;2022-12-07T13:02:27;21.10;;;10.20;;
56830;SDS011;42713;42.676;23.352;2022-12-07T13:04:59;20.10;;;10.18;;
56830;SDS011;42713;42.676;23.352;2022-12-07T13:15:49;26.13;;;10.55;;
56830;SDS011;42713;42.676;23.352;2022-12-07T13:18:35;25.45;;;10.85;;
56830;SDS011;42713;42.676;23.352;2022-12-07T13:29:11;21.67;;;9.95;;
56830;SDS011;42713;42.676;23.352;2022-12-07T13:31:42;21.55;;;10.05;;
56830;SDS011;42713;42.676;23.352;2022-12-07T13:37:24;21.80;;;10.38;;
56830;SDS011;42713;42.676;23.352;2022-12-07T13:39:53;23.67;;;10.63;;
56830;SDS011;42713;42.676;23.352;2022-12-07T13:42:24;20.70;;;9.85;;
56830;SDS011;42713;42.676;23.352;2022-12-07T13:44:51;26.40;;;11.00;;
56830;SDS011;42713;42.676;23.352;2022-12-07T13:52:47;19.80;;;10.38;;
56830;SDS011;42713;42.676;23.352;2022-12-07T13:55:15;21.60;;;10.90;;
56830;SDS011;42713;42.676;23.352;2022-12-07T13:57:42;20.70;;;11.00;;
56830;SDS011;42713;42.676;23.352;2022-12-07T14:00:16;28.27;;;10.90;;
56830;SDS011;42713;42.676;23.352;2022-12-07T14:02:54;20.65;;;11.07;;
56830;SDS011;42713;42.676;23.352;2022-12-07T14:12:56;26.92;;;11.50;;
56830;SDS011;42713;42.676;23.352;2022-12-07T14:15:27;21.95;;;11.52;;
56830;SDS011;42713;42.676;23.352;2022-12-07T14:17:56;28.35;;;11.23;;
56830;SDS011;42713;42.676;23.352;2022-12-07T14:22:55;28.15;;;11.57;;
56830;SDS011;42713;42.676;23.352;2022-12-07T14:25:24;27.13;;;10.90;;
56830;SDS011;42713;42.676;23.352;2022-12-07T14:27:58;22.50;;;10.80;;
56830;SDS011;42713;42.676;23.352;2022-12-07T14:30:29;29.25;;;12.45;;
56830;SDS011;42713;42.676;23.352;2022-12-07T14:33:01;27.73;;;11.68;;
56830;SDS011;42713;42.676;23.352;2022-12-07T14:35:29;25.40;;;11.98;;
56830;SDS011;42713;42.676;23.352;2022-12-07T14:37:56;32.25;;;11.50;;
56830;SDS011;42713;42.676;23.352;2022-12-07T14:40:25;26.77;;;12.82;;
56830;SDS011;42713;42.676;23.352;2022-12-07T14:43:00;26.27;;;11.32;;
56830;SDS011;42713;42.676;23.352;2022-12-07T14:45:27;23.48;;;11.05;;
56830;SDS011;42713;42.676;23.352;2022-12-07T14:47:53;28.65;;;12.27;;
56830;SDS011;42713;42.676;23.352;2022-12-07T14:50:19;26.58;;;12.20;;
56830;SDS011;42713;42.676;23.352;2022-12-07T14:52:47;28.15;;;12.05;;
56830;SDS011;42713;42.676;23.352;2022-12-07T14:55:27;25.50;;;11.45;;
56830;SDS011;42713;42.676;23.352;2022-12-07T14:57:54;31.23;;;12.60;;
56830;SDS011;42713;42.676;23.352;2022-12-07T15:00:21;26.95;;;11.60;;
56830;SDS011;42713;42.676;23.352;2022-12-07T15:02:49;23.58;;;11.30;;
56830;SDS011;42713;42.676;23.352;2022-12-07T15:05:16;28.92;;;12.35;;
56830;SDS011;42713;42.676;23.352;2022-12-07T15:07:42;28.15;;;12.57;;
56830;SDS011;42713;42.676;23.352;2022-12-07T15:10:13;30.52;;;12.23;;
56830;SDS011;42713;42.676;23.352;2022-12-07T15:12:41;24.65;;;12.43;;
56830;SDS011;42713;42.676;23.352;2022-12-07T15:15:07;27.08;;;12.73;;
56830;SDS011;42713;42.676;23.352;2022-12-07T15:17:33;26.05;;;12.60;;
56830;SDS011;42713;42.676;23.352;2022-12-07T15:19:58;24.80;;;12.70;;
56830;SDS011;42713;42.676;23.352;2022-12-07T15:22:24;26.10;;;11.52;;
56830;SDS011;42713;42.676;23.352;2022-12-07T15:24:49;28.15;;;12.65;;
56830;SDS011;42713;42.676;23.352;2022-12-07T15:27:15;28.42;;;12.77;;
56830;SDS011;42713;42.676;23.352;2022-12-07T15:29:40;26.35;;;12.57;;
56830;SDS011;42713;42.676;23.352;2022-12-07T15:32:05;27.48;;;12.93;;
56830;SDS011;42713;42.676;23.352;2022-12-07T15:34:31;29.67;;;12.27;;
56830;SDS011;42713;42.676;23.352;2022-12-07T15:36:57;29.00;;;13.20;;
56830;SDS011;42713;42.676;23.352;2022-12-07T15:39:22;28.75;;;13.85;;
56830;SDS011;42713;42.676;23.352;2022-12-07T15:41:48;30.13;;;11.80;;
56830;SDS011;42713;42.676;23.352;2022-12-07T15:44:14;36.13;;;14.75;;
56830;SDS011;42713;42.676;23.352;2022-12-07T15:46:58;28.60;;;12.68;;
56830;SDS011;42713;42.676;23.352;2022-12-07T15:49:24;27.42;;;12.82;;
56830;SDS011;42713;42.676;23.352;2022-12-07T15:51:50;34.60;;;12.88;;
56830;SDS011;42713;42.676;23.352;2022-12-07T15:54:20;28.73;;;12.52;;
56830;SDS011;42713;42.676;23.352;2022-12-07T15:56:51;30.10;;;13.50;;
56830;SDS011;42713;42.676;23.352;2022-12-07T15:59:17;36.80;;;13.80;;
56830;SDS011;42713;42.676;23.352;2022-12-07T16:01:43;34.45;;;14.40;;
56830;SDS011;42713;42.676;23.352;2022-12-07T16:04:08;39.33;;;15.32;;
56830;SDS011;42713;42.676;23.352;2022-12-07T16:06:34;38.58;;;13.95;;
56830;SDS011;42713;42.676;23.352;2022-12-07T16:09:00;31.15;;;14.65;;
56830;SDS011;42713;42.676;23.352;2022-12-07T16:11:25;31.42;;;13.95;;
56830;SDS011;42713;42.676;23.352;2022-12-07T16:13:51;40.80;;;14.82;;
56830;SDS011;42713;42.676;23.352;2022-12-07T16:16:17;37.38;;;15.18;;
56830;SDS011;42713;42.676;23.352;2022-12-07T16:18:44;38.28;;;15.98;;
56830;SDS011;42713;42.676;23.352;2022-12-07T16:21:11;34.63;;;13.80;;
56830;SDS011;42713;42.676;23.352;2022-12-07T16:23:38;34.20;;;14.07;;
56830;SDS011;42713;42.676;23.352;2022-12-07T16:26:08;32.03;;;13.80;;
56830;SDS011;42713;42.676;23.352;2022-12-07T16:28:44;33.00;;;14.18;;
56830;SDS011;42713;42.676;23.352;2022-12-07T16:31:14;32.45;;;14.00;;
56830;SDS011;42713;42.676;23.352;2022-12-07T16:33:42;33.85;;;13.48;;